createdAt,value
2022-10-21T00:02:07.649Z,9.57
2022-10-21T00:04:53.144Z,9.52
2022-10-21T00:07:38.623Z,9.57
2022-10-21T00:10:24.010Z,9.60
2022-10-21T00:13:09.090Z,9.65
2022-10-21T00:16:03.472Z,9.70
2022-10-21T00:18:49.214Z,9.71
2022-10-21T00:21:36.408Z,9.73
2022-10-21T00:24:21.574Z,9.75
2022-10-21T00:27:07.059Z,9.77
2022-10-21T00:29:52.207Z,9.79
2022-10-21T00:32:37.608Z,9.84
2022-10-21T00:35:22.867Z,9.87
2022-10-21T00:38:08.262Z,9.88
2022-10-21T00:40:54.105Z,9.91
2022-10-21T00:43:57.526Z,9.93
2022-10-21T00:46:48.939Z,9.94
2022-10-21T00:50:01.860Z,9.96
2022-10-21T00:52:47.358Z,9.96
2022-10-21T00:55:36.627Z,9.97
2022-10-21T00:58:26.317Z,9.95
2022-10-21T01:01:11.835Z,9.92
2022-10-21T01:03:56.930Z,9.88
2022-10-21T01:06:42.852Z,9.83
2022-10-21T01:09:29.883Z,9.82
2022-10-21T01:12:30.863Z,9.81
2022-10-21T01:15:32.219Z,9.81
2022-10-21T01:18:26.591Z,9.80
2022-10-21T01:21:23.943Z,9.78
2022-10-21T01:24:57.062Z,9.73
2022-10-21T01:28:05.650Z,9.72
2022-10-21T01:31:01.087Z,9.69
2022-10-21T01:33:59.270Z,9.71
2022-10-21T01:36:56.980Z,9.69
2022-10-21T01:39:49.637Z,9.67
2022-10-21T01:42:56.538Z,9.69
2022-10-21T01:45:48.909Z,9.75
2022-10-21T01:48:43.260Z,9.76
2022-10-21T01:51:29.536Z,9.75
2022-10-21T01:54:25.146Z,9.75
2022-10-21T01:57:14.705Z,9.73
2022-10-21T02:00:01.506Z,9.75
2022-10-21T02:02:49.771Z,9.79
2022-10-21T02:05:35.730Z,9.77
2022-10-21T02:08:21.431Z,9.80
2022-10-21T02:11:09.434Z,9.83
2022-10-21T02:14:02.767Z,9.83
2022-10-21T02:16:52.378Z,9.80
2022-10-21T02:19:38.079Z,9.82
2022-10-21T02:22:24.509Z,9.82
2022-10-21T02:25:25.465Z,9.83
2022-10-21T02:28:13.026Z,9.83
2022-10-21T02:31:07.848Z,9.89
2022-10-21T02:34:02.194Z,9.93
2022-10-21T02:37:18.614Z,9.98
2022-10-21T02:40:11.629Z,9.96
2022-10-21T02:43:02.853Z,9.97
2022-10-21T02:45:49.885Z,9.99
2022-10-21T02:48:37.353Z,10.03
2022-10-21T02:51:22.783Z,10.03
2022-10-21T02:54:08.259Z,10.03
2022-10-21T02:56:53.699Z,9.98
2022-10-21T02:59:38.939Z,9.97
2022-10-21T03:02:24.085Z,9.95
2022-10-21T03:05:09.786Z,9.92
2022-10-21T03:07:54.916Z,9.89
2022-10-21T03:10:40.593Z,9.87
2022-10-21T03:13:25.599Z,9.88
2022-10-21T03:16:11.046Z,9.92
2022-10-21T03:18:56.247Z,9.98
2022-10-21T03:21:41.419Z,9.99
2022-10-21T03:24:28.707Z,10.02
2022-10-21T03:27:14.314Z,10.01
2022-10-21T03:29:59.908Z,10.04
2022-10-21T03:32:45.358Z,10.06
2022-10-21T03:35:30.600Z,10.07
2022-10-21T03:38:15.818Z,10.08
2022-10-21T03:41:01.159Z,10.11
2022-10-21T03:43:46.772Z,10.15
2022-10-21T03:46:32.183Z,10.19
2022-10-21T03:49:21.430Z,10.18
2022-10-21T03:52:07.039Z,10.20
2022-10-21T03:54:52.387Z,10.21
2022-10-21T03:57:37.894Z,10.24
2022-10-21T04:00:26.030Z,10.27
2022-10-21T04:03:13.429Z,10.27
2022-10-21T04:05:58.864Z,10.29
2022-10-21T04:08:44.235Z,10.26
2022-10-21T04:11:29.290Z,10.26
2022-10-21T04:14:15.522Z,10.27
2022-10-21T04:17:06.730Z,10.27
2022-10-21T04:19:52.134Z,10.31
2022-10-21T04:22:37.739Z,10.31
2022-10-21T04:25:23.185Z,10.26
2022-10-21T04:28:08.381Z,10.20
2022-10-21T04:30:53.976Z,10.14
2022-10-21T04:33:39.096Z,10.13
2022-10-21T04:36:24.565Z,10.14
2022-10-21T04:39:09.707Z,10.15
2022-10-21T04:41:55.965Z,10.11
2022-10-21T04:44:41.496Z,10.11
2022-10-21T04:47:26.641Z,10.11
2022-10-21T04:50:11.848Z,10.14
2022-10-21T04:52:57.328Z,10.19
2022-10-21T04:55:42.895Z,10.19
2022-10-21T04:58:28.128Z,10.18
2022-10-21T05:01:13.441Z,10.17
2022-10-21T05:03:58.880Z,10.17
2022-10-21T05:06:44.364Z,10.20
2022-10-21T05:09:29.411Z,10.23
2022-10-21T05:12:14.825Z,10.25
2022-10-21T05:15:02.156Z,10.22
2022-10-21T05:17:47.494Z,10.22
2022-10-21T05:20:32.959Z,10.22
2022-10-21T05:23:18.934Z,10.23
2022-10-21T05:26:04.475Z,10.26
2022-10-21T05:28:49.696Z,10.26
2022-10-21T05:31:35.019Z,10.27
2022-10-21T05:34:20.132Z,10.28
2022-10-21T05:37:06.001Z,10.30
2022-10-21T05:39:44.988Z,10.31
2022-10-21T05:42:30.479Z,10.34
2022-10-21T05:45:16.068Z,10.35
2022-10-21T05:48:01.319Z,10.39
2022-10-21T05:50:47.711Z,10.36
2022-10-21T05:53:32.921Z,10.37
2022-10-21T05:56:18.281Z,10.39
2022-10-21T05:59:05.483Z,10.41
2022-10-21T06:01:53.191Z,10.45
2022-10-21T06:04:38.992Z,10.46
2022-10-21T06:07:24.268Z,10.46
2022-10-21T06:10:09.934Z,10.48
2022-10-21T06:12:55.521Z,10.47
2022-10-21T06:15:40.672Z,10.49
2022-10-21T06:18:26.395Z,10.53
2022-10-21T06:21:11.958Z,10.54
2022-10-21T06:23:57.182Z,10.62
2022-10-21T06:26:42.401Z,10.63
2022-10-21T06:29:27.799Z,10.63
2022-10-21T06:32:13.077Z,10.61
2022-10-21T06:34:58.544Z,10.53
2022-10-21T06:37:43.694Z,10.47
2022-10-21T06:40:28.806Z,10.43
2022-10-21T06:43:15.242Z,10.47
2022-10-21T06:46:02.648Z,10.51
2022-10-21T06:48:48.579Z,10.51
2022-10-21T06:51:33.782Z,10.52
2022-10-21T06:54:18.956Z,10.54
2022-10-21T06:57:04.719Z,10.57
2022-10-21T06:59:49.923Z,10.61
2022-10-21T07:02:35.825Z,10.65
2022-10-21T07:05:21.124Z,10.65
2022-10-21T07:08:10.559Z,10.74
2022-10-21T07:10:58.006Z,10.79
2022-10-21T07:13:43.081Z,10.86
2022-10-21T07:16:34.173Z,10.93
2022-10-21T07:19:21.827Z,10.98
2022-10-21T07:22:07.069Z,11.05
2022-10-21T07:24:52.313Z,11.12
2022-10-21T07:27:37.937Z,11.14
2022-10-21T07:30:23.687Z,11.17
2022-10-21T07:33:09.510Z,11.21
2022-10-21T07:36:06.664Z,11.24
2022-10-21T07:38:53.622Z,11.29
2022-10-21T07:41:48.899Z,11.30
2022-10-21T07:44:34.318Z,11.34
2022-10-21T07:47:19.525Z,11.42
2022-10-21T07:50:05.005Z,11.53
2022-10-21T07:52:58.299Z,11.60
2022-10-21T07:56:06.604Z,11.65
2022-10-21T07:58:52.890Z,11.70
2022-10-21T08:01:40.328Z,11.77
2022-10-21T08:04:29.661Z,11.88
2022-10-21T08:07:14.757Z,11.97
2022-10-21T08:10:00.623Z,12.18
2022-10-21T08:13:11.120Z,12.58
2022-10-21T08:15:57.025Z,12.69
2022-10-21T08:18:42.226Z,12.59
2022-10-21T08:21:28.239Z,12.42
2022-10-21T08:24:13.784Z,12.41
2022-10-21T08:26:59.587Z,12.46
2022-10-21T08:29:46.841Z,12.56
2022-10-21T08:32:32.291Z,12.60
2022-10-21T08:35:17.720Z,12.64
2022-10-21T08:38:03.147Z,12.67
2022-10-21T08:40:51.049Z,12.73
2022-10-21T08:43:39.650Z,12.80
2022-10-21T08:46:32.216Z,12.89
2022-10-21T08:49:25.048Z,12.98
2022-10-21T08:52:21.255Z,13.14
2022-10-21T08:55:15.741Z,13.38
2022-10-21T08:58:02.432Z,13.52
2022-10-21T09:01:17.613Z,13.59
2022-10-21T09:04:18.840Z,13.59
2022-10-21T09:07:16.330Z,13.55
2022-10-21T09:10:16.104Z,13.52
2022-10-21T09:13:12.795Z,13.50
2022-10-21T09:16:14.316Z,13.50
2022-10-21T09:19:14.887Z,13.55
2022-10-21T09:22:41.315Z,13.57
2022-10-21T09:25:54.837Z,13.92
2022-10-21T09:28:40.274Z,14.21
2022-10-21T09:31:28.738Z,14.31
2022-10-21T09:34:21.074Z,14.51
2022-10-21T09:37:13.613Z,14.45
2022-10-21T09:43:22.984Z,14.04
2022-10-21T09:46:12.984Z,13.96
2022-10-21T09:52:07.424Z,14.06
2022-10-21T09:54:52.934Z,14.20
2022-10-21T09:57:48.285Z,14.42
2022-10-21T10:00:44.627Z,14.58
2022-10-21T10:03:36.538Z,14.73
2022-10-21T10:06:36.334Z,14.87
2022-10-21T10:09:29.143Z,14.86
2022-10-21T10:12:22.416Z,14.88
2022-10-21T10:15:32.113Z,14.97
2022-10-21T10:18:24.478Z,14.92
2022-10-21T10:21:16.734Z,14.96
2022-10-21T10:24:03.024Z,15.00
2022-10-21T10:26:49.338Z,14.92
2022-10-21T10:29:35.773Z,14.85
2022-10-21T10:32:24.748Z,14.82
2022-10-21T10:35:35.610Z,14.80
2022-10-21T10:38:34.056Z,14.85
2022-10-21T10:41:19.453Z,14.90
2022-10-21T10:44:12.288Z,15.05
2022-10-21T10:47:01.300Z,15.23
2022-10-21T10:49:47.309Z,15.38
2022-10-21T10:52:32.796Z,15.49
2022-10-21T10:55:18.544Z,15.57
2022-10-21T10:58:12.498Z,15.61
2022-10-21T11:01:00.916Z,15.78
2022-10-21T11:03:59.582Z,15.97
2022-10-21T11:06:51.161Z,16.16
2022-10-21T11:09:37.394Z,16.39
2022-10-21T11:12:26.473Z,16.56
2022-10-21T11:15:15.865Z,16.58
2022-10-21T11:18:24.213Z,16.48
2022-10-21T11:21:16.377Z,16.29
2022-10-21T11:24:19.997Z,16.15
2022-10-21T11:27:46.472Z,15.94
2022-10-21T11:31:10.449Z,15.94
2022-10-21T11:34:18.740Z,16.00
2022-10-21T11:37:37.468Z,16.14
2022-10-21T11:40:32.641Z,16.19
2022-10-21T11:43:20.785Z,16.26
2022-10-21T11:46:45.064Z,16.26
2022-10-21T11:49:55.856Z,16.29
2022-10-21T11:52:49.409Z,16.30
2022-10-21T11:55:38.732Z,16.26
2022-10-21T11:58:41.440Z,16.26
2022-10-21T12:01:40.877Z,16.33
2022-10-21T12:04:37.118Z,16.35
2022-10-21T12:07:42.636Z,16.36
2022-10-21T12:10:34.415Z,16.34
2022-10-21T12:13:31.000Z,16.30
2022-10-21T12:16:25.827Z,16.30
2022-10-21T12:19:13.270Z,16.26
2022-10-21T12:21:58.549Z,16.28
2022-10-21T12:24:56.827Z,16.20
2022-10-21T12:27:47.276Z,16.16
2022-10-21T12:30:53.781Z,16.05
2022-10-21T12:33:43.191Z,15.94
2022-10-21T12:36:40.722Z,15.80
2022-10-21T12:39:32.464Z,15.69
2022-10-21T12:42:22.596Z,15.65
2022-10-21T12:45:26.708Z,15.66
2022-10-21T12:48:33.154Z,15.68
2022-10-21T12:51:36.661Z,15.76
2022-10-21T12:54:29.549Z,15.79
2022-10-21T12:57:39.973Z,15.83
2022-10-21T13:00:29.172Z,15.87
2022-10-21T13:03:19.990Z,15.88
2022-10-21T13:06:06.189Z,15.91
2022-10-21T13:08:52.464Z,15.89
2022-10-21T13:11:39.903Z,15.88
2022-10-21T13:14:35.169Z,15.85
2022-10-21T13:17:21.575Z,15.83
2022-10-21T13:20:07.015Z,15.84
2022-10-21T13:23:03.434Z,15.85
2022-10-21T13:26:06.475Z,15.81
2022-10-21T13:29:19.540Z,15.80
2022-10-21T13:32:22.382Z,15.79
2022-10-21T13:35:36.870Z,15.78
2022-10-21T13:38:33.634Z,15.74
2022-10-21T13:41:27.808Z,15.68
2022-10-21T13:44:37.543Z,15.63
2022-10-21T13:47:33.842Z,15.59
2022-10-21T13:50:26.041Z,15.57
2022-10-21T13:53:17.387Z,15.56
2022-10-21T13:56:06.034Z,15.54
2022-10-21T13:58:52.516Z,15.55
2022-10-21T14:01:49.554Z,15.55
2022-10-21T14:04:40.559Z,15.54
2022-10-21T14:07:26.871Z,15.50
2022-10-21T14:10:15.688Z,15.49
2022-10-21T14:13:01.548Z,15.45
2022-10-21T14:15:49.271Z,15.40
2022-10-21T14:18:44.765Z,15.37
2022-10-21T14:21:37.961Z,15.29
2022-10-21T14:27:36.295Z,15.21
2022-10-21T14:30:27.413Z,15.22
2022-10-21T14:33:17.953Z,15.20
2022-10-21T14:36:20.474Z,15.18
2022-10-21T14:39:23.628Z,15.16
2022-10-21T14:42:34.884Z,15.12
2022-10-21T14:45:35.017Z,15.08
2022-10-21T14:48:30.629Z,15.04
2022-10-21T14:51:22.453Z,15.02
2022-10-21T14:54:36.388Z,14.99
2022-10-21T14:57:36.770Z,14.98
2022-10-21T15:00:30.171Z,14.97
2022-10-21T15:03:16.273Z,14.96
2022-10-21T15:06:13.546Z,14.95
2022-10-21T15:09:05.050Z,14.91
2022-10-21T15:11:50.476Z,14.93
2022-10-21T15:14:35.954Z,14.93
2022-10-21T15:17:22.701Z,14.93
2022-10-21T15:20:16.005Z,14.90
2022-10-21T15:23:01.597Z,14.90
2022-10-21T15:25:46.989Z,14.87
2022-10-21T15:28:33.924Z,14.85
2022-10-21T15:31:25.068Z,14.81
2022-10-21T15:34:15.018Z,14.80
2022-10-21T15:37:00.216Z,14.80
2022-10-21T15:39:45.500Z,14.78
2022-10-21T15:42:31.091Z,14.77
2022-10-21T15:45:19.424Z,14.73
2022-10-21T15:48:09.277Z,14.71
2022-10-21T15:50:59.988Z,14.66
2022-10-21T15:53:45.303Z,14.66
2022-10-21T15:56:30.746Z,14.63
2022-10-21T15:59:18.915Z,14.62
2022-10-21T16:04:52.997Z,14.59
2022-10-21T16:07:38.494Z,14.60
2022-10-21T16:10:30.511Z,14.56
2022-10-21T16:13:15.995Z,14.56
2022-10-21T16:16:01.903Z,14.56
2022-10-21T16:18:48.005Z,14.57
2022-10-21T16:21:33.554Z,14.54
2022-10-21T16:24:18.852Z,14.53
2022-10-21T16:27:11.646Z,14.52
2022-10-21T16:29:57.056Z,14.52
2022-10-21T16:32:42.463Z,14.52
2022-10-21T16:35:27.864Z,14.51
2022-10-21T16:38:13.328Z,14.50
2022-10-21T16:40:58.759Z,14.51
2022-10-21T16:43:44.455Z,14.52
2022-10-21T16:46:49.372Z,14.53
2022-10-21T16:49:34.769Z,14.55
2022-10-21T16:52:20.174Z,14.54
2022-10-21T16:55:06.994Z,14.54
2022-10-21T16:57:52.311Z,14.53
2022-10-21T17:00:37.783Z,14.53
2022-10-21T17:03:23.015Z,14.54
2022-10-21T17:06:08.896Z,14.55
2022-10-21T17:08:55.997Z,14.55
2022-10-21T17:11:42.458Z,14.55
2022-10-21T17:14:28.298Z,14.54
2022-10-21T17:17:21.422Z,14.52
2022-10-21T17:20:07.387Z,14.55
2022-10-21T17:22:52.743Z,14.57
2022-10-21T17:25:38.382Z,14.57
2022-10-21T17:28:24.232Z,14.57
2022-10-21T17:31:17.296Z,14.54
2022-10-21T17:34:06.357Z,14.56
2022-10-21T17:36:51.735Z,14.55
2022-10-21T17:39:36.918Z,14.53
2022-10-21T17:42:22.114Z,14.51
2022-10-21T17:45:09.205Z,14.48
2022-10-21T17:47:54.535Z,14.47
2022-10-21T17:50:40.099Z,14.45
2022-10-21T17:53:27.642Z,14.42
2022-10-21T17:56:12.991Z,14.45
2022-10-21T17:58:58.692Z,14.45
2022-10-21T18:01:44.337Z,14.44
2022-10-21T18:04:31.578Z,14.42
2022-10-21T18:07:17.896Z,14.39
2022-10-21T18:10:04.667Z,14.35
2022-10-21T18:12:50.056Z,14.34
2022-10-21T18:15:37.425Z,14.33
2022-10-21T18:18:23.186Z,14.32
2022-10-21T18:21:12.256Z,14.28
2022-10-21T18:23:58.023Z,14.26
2022-10-21T18:26:43.291Z,14.26
2022-10-21T18:29:28.736Z,14.22
2022-10-21T18:32:14.835Z,14.21
2022-10-21T18:35:00.414Z,14.23
2022-10-21T18:37:45.914Z,14.21
2022-10-21T18:40:31.238Z,14.21
2022-10-21T18:43:16.670Z,14.21
2022-10-21T18:46:03.410Z,14.22
2022-10-21T18:48:48.738Z,14.22
2022-10-21T18:51:34.006Z,14.25
2022-10-21T18:54:19.690Z,14.24
2022-10-21T18:57:07.560Z,14.25
2022-10-21T18:59:54.433Z,14.27
2022-10-21T19:02:40.218Z,14.27
2022-10-21T19:05:25.701Z,14.28
2022-10-21T19:08:10.895Z,14.29
2022-10-21T19:10:56.397Z,14.31
2022-10-21T19:13:41.594Z,14.31
2022-10-21T19:16:26.951Z,14.33
2022-10-21T19:19:13.057Z,14.33
2022-10-21T19:21:58.558Z,14.34
2022-10-21T19:24:43.747Z,14.35
2022-10-21T19:27:29.334Z,14.37
2022-10-21T19:30:14.591Z,14.38
2022-10-21T19:33:02.003Z,14.38
2022-10-21T19:35:47.322Z,14.37
2022-10-21T19:38:50.022Z,14.36
2022-10-21T19:41:35.069Z,14.36
2022-10-21T19:44:20.228Z,14.37
2022-10-21T19:47:05.858Z,14.37
2022-10-21T19:49:51.204Z,14.40
2022-10-21T19:52:36.446Z,14.41
2022-10-21T19:55:21.611Z,14.42
2022-10-21T19:58:06.799Z,14.42
2022-10-21T20:01:08.999Z,14.42
2022-10-21T20:03:55.301Z,14.42
2022-10-21T20:06:40.844Z,14.43
2022-10-21T20:09:26.321Z,14.43
2022-10-21T20:12:11.783Z,14.42
2022-10-21T20:14:57.340Z,14.43
2022-10-21T20:17:42.779Z,14.42
2022-10-21T20:20:27.937Z,14.43
2022-10-21T20:23:13.190Z,14.42
2022-10-21T20:25:59.134Z,14.41
2022-10-21T20:28:44.904Z,14.42
2022-10-21T20:31:30.994Z,14.42
2022-10-21T20:34:16.400Z,14.45
2022-10-21T20:37:01.564Z,14.45
2022-10-21T20:39:46.823Z,14.47
2022-10-21T20:42:32.978Z,14.45
2022-10-21T20:45:19.939Z,14.45
2022-10-21T20:48:05.638Z,14.46
2022-10-21T20:51:00.842Z,14.44
2022-10-21T20:53:51.155Z,14.43
2022-10-21T20:56:38.541Z,14.41
2022-10-21T20:59:23.791Z,14.43
2022-10-21T21:02:09.197Z,14.42
2022-10-21T21:04:54.358Z,14.41
2022-10-21T21:07:39.653Z,14.44
2022-10-21T21:10:25.286Z,14.47
2022-10-21T21:13:10.633Z,14.50
2022-10-21T21:16:08.162Z,14.51
2022-10-21T21:18:59.503Z,14.52
2022-10-21T21:21:44.819Z,14.55
2022-10-21T21:24:30.165Z,14.56
2022-10-21T21:27:15.820Z,14.57
2022-10-21T21:30:01.372Z,14.56
2022-10-21T21:32:46.575Z,14.57
2022-10-21T21:35:32.005Z,14.57
2022-10-21T21:38:17.454Z,14.57
2022-10-21T21:41:05.461Z,14.58
2022-10-21T21:43:53.442Z,14.58
2022-10-21T21:46:38.697Z,14.59
2022-10-21T21:49:24.279Z,14.58
2022-10-21T21:52:09.540Z,14.58
2022-10-21T21:54:56.883Z,14.57
2022-10-21T21:57:42.354Z,14.56
2022-10-21T22:00:27.846Z,14.55
2022-10-21T22:03:13.156Z,14.53
2022-10-21T22:05:58.533Z,14.52
2022-10-21T22:08:44.850Z,14.49
2022-10-21T22:11:32.308Z,14.46
2022-10-21T22:14:17.478Z,14.41
2022-10-21T22:17:02.994Z,14.38
2022-10-21T22:19:52.898Z,14.35
2022-10-21T22:22:39.291Z,14.31
2022-10-21T22:25:24.901Z,14.27
2022-10-21T22:28:10.563Z,14.26
2022-10-21T22:31:04.946Z,14.27
2022-10-21T22:33:51.686Z,14.30
2022-10-21T22:36:37.117Z,14.35
2022-10-21T22:39:22.392Z,14.36
2022-10-21T22:42:08.078Z,14.41
2022-10-21T22:44:53.473Z,14.44
2022-10-21T22:47:39.128Z,14.46
2022-10-21T22:50:24.245Z,14.48
2022-10-21T22:53:09.831Z,14.51
2022-10-21T22:55:55.234Z,14.51
2022-10-21T22:58:40.555Z,14.52
2022-10-21T23:01:30.247Z,14.53
2022-10-21T23:04:17.801Z,14.51
2022-10-21T23:07:02.834Z,14.50
2022-10-21T23:09:48.316Z,14.49
2022-10-21T23:12:33.397Z,14.48
2022-10-21T23:15:18.762Z,14.48
2022-10-21T23:18:04.433Z,14.47
2022-10-21T23:20:49.916Z,14.48
2022-10-21T23:23:36.112Z,14.48
2022-10-21T23:26:21.346Z,14.50
2022-10-21T23:29:06.767Z,14.51
2022-10-21T23:31:54.191Z,14.51
2022-10-21T23:34:41.797Z,14.49
2022-10-21T23:37:27.303Z,14.46
2022-10-21T23:40:13.181Z,14.43
2022-10-21T23:42:58.261Z,14.39
2022-10-21T23:45:43.498Z,14.34
2022-10-21T23:48:28.903Z,14.30
2022-10-21T23:51:14.147Z,14.30
2022-10-21T23:53:59.469Z,14.29
2022-10-21T23:56:45.445Z,14.26
2022-10-21T23:59:31.071Z,14.26
